sensor_id;sensor_type;location;lat;lon;timestamp;temperature;humidity
18139;DHT22;9195;53.176;9.486;2022-12-18T00:00:40;-6.20;99.90
18139;DHT22;9195;53.176;9.486;2022-12-18T00:03:07;-6.10;99.90
18139;DHT22;9195;53.176;9.486;2022-12-18T00:05:32;-6.10;99.90
18139;DHT22;9195;53.176;9.486;2022-12-18T00:07:58;-6.20;99.90
18139;DHT22;9195;53.176;9.486;2022-12-18T00:10:24;-6.10;99.90
18139;DHT22;9195;53.176;9.486;2022-12-18T00:12:49;-6.10;99.90
18139;DHT22;9195;53.176;9.486;2022-12-18T00:15:15;-6.20;99.90
18139;DHT22;9195;53.176;9.486;2022-12-18T00:17:41;-6.20;99.90
18139;DHT22;9195;53.176;9.486;2022-12-18T00:20:07;-6.20;99.90
18139;DHT22;9195;53.176;9.486;2022-12-18T00:22:33;-6.20;99.90
18139;DHT22;9195;53.176;9.486;2022-12-18T00:24:58;-6.30;99.90
18139;DHT22;9195;53.176;9.486;2022-12-18T00:27:24;-6.30;99.90
18139;DHT22;9195;53.176;9.486;2022-12-18T00:29:50;-6.30;99.90
18139;DHT22;9195;53.176;9.486;2022-12-18T00:32:15;-6.30;99.90
18139;DHT22;9195;53.176;9.486;2022-12-18T00:34:41;-6.30;99.90
18139;DHT22;9195;53.176;9.486;2022-12-18T00:37:07;-6.30;99.90
18139;DHT22;9195;53.176;9.486;2022-12-18T00:39:32;-6.20;99.90
18139;DHT22;9195;53.176;9.486;2022-12-18T00:41:58;-6.20;99.90
18139;DHT22;9195;53.176;9.486;2022-12-18T00:44:42;-6.20;99.90
18139;DHT22;9195;53.176;9.486;2022-12-18T00:47:07;-6.20;99.90
18139;DHT22;9195;53.176;9.486;2022-12-18T00:49:33;-6.30;99.90
18139;DHT22;9195;53.176;9.486;2022-12-18T00:51:59;-6.30;99.90
18139;DHT22;9195;53.176;9.486;2022-12-18T00:54:24;-6.30;99.90
18139;DHT22;9195;53.176;9.486;2022-12-18T00:56:50;-6.30;99.90
18139;DHT22;9195;53.176;9.486;2022-12-18T00:59:17;-6.30;99.90
18139;DHT22;9195;53.176;9.486;2022-12-18T01:01:43;-6.30;99.90
18139;DHT22;9195;53.176;9.486;2022-12-18T01:04:08;-6.30;99.90
18139;DHT22;9195;53.176;9.486;2022-12-18T01:06:34;-6.40;99.90
18139;DHT22;9195;53.176;9.486;2022-12-18T01:09:00;-6.40;99.90
18139;DHT22;9195;53.176;9.486;2022-12-18T01:11:25;-6.50;99.90
18139;DHT22;9195;53.176;9.486;2022-12-18T01:13:53;-6.50;99.90
18139;DHT22;9195;53.176;9.486;2022-12-18T01:16:19;-6.50;99.90
18139;DHT22;9195;53.176;9.486;2022-12-18T01:18:45;-6.40;99.90
18139;DHT22;9195;53.176;9.486;2022-12-18T01:21:14;-6.40;99.90
18139;DHT22;9195;53.176;9.486;2022-12-18T01:23:40;-6.40;99.90
18139;DHT22;9195;53.176;9.486;2022-12-18T01:26:07;-6.40;99.90
18139;DHT22;9195;53.176;9.486;2022-12-18T01:28:33;-6.40;99.90
18139;DHT22;9195;53.176;9.486;2022-12-18T01:33:41;-6.40;99.90
18139;DHT22;9195;53.176;9.486;2022-12-18T01:36:07;-6.40;99.90
18139;DHT22;9195;53.176;9.486;2022-12-18T01:38:33;-6.40;99.90
18139;DHT22;9195;53.176;9.486;2022-12-18T01:40:59;-6.40;99.90
18139;DHT22;9195;53.176;9.486;2022-12-18T01:43:49;-6.50;99.90
18139;DHT22;9195;53.176;9.486;2022-12-18T01:46:17;-6.50;99.90
18139;DHT22;9195;53.176;9.486;2022-12-18T01:48:44;-6.50;99.90
18139;DHT22;9195;53.176;9.486;2022-12-18T01:51:11;-6.50;99.90
18139;DHT22;9195;53.176;9.486;2022-12-18T01:53:39;-6.50;99.90
18139;DHT22;9195;53.176;9.486;2022-12-18T01:56:06;-6.60;99.90
18139;DHT22;9195;53.176;9.486;2022-12-18T01:58:43;-6.60;99.90
18139;DHT22;9195;53.176;9.486;2022-12-18T02:01:10;-6.60;99.90
18139;DHT22;9195;53.176;9.486;2022-12-18T02:03:36;-6.70;99.90
18139;DHT22;9195;53.176;9.486;2022-12-18T02:16:51;-6.70;99.90
18139;DHT22;9195;53.176;9.486;2022-12-18T02:24:28;-6.80;99.90
18139;DHT22;9195;53.176;9.486;2022-12-18T02:27:04;-6.80;99.90
18139;DHT22;9195;53.176;9.486;2022-12-18T02:29:50;-6.80;99.90
18139;DHT22;9195;53.176;9.486;2022-12-18T02:32:27;-6.80;99.90
18139;DHT22;9195;53.176;9.486;2022-12-18T02:34:56;-6.90;99.90
18139;DHT22;9195;53.176;9.486;2022-12-18T02:37:23;-6.90;99.90
18139;DHT22;9195;53.176;9.486;2022-12-18T02:39:51;-6.90;99.90
18139;DHT22;9195;53.176;9.486;2022-12-18T02:42:18;-6.90;99.90
18139;DHT22;9195;53.176;9.486;2022-12-18T02:44:46;-6.90;99.90
18139;DHT22;9195;53.176;9.486;2022-12-18T02:47:14;-6.90;99.90
18139;DHT22;9195;53.176;9.486;2022-12-18T02:54:51;-7.00;99.90
18139;DHT22;9195;53.176;9.486;2022-12-18T02:57:52;-7.00;99.90
18139;DHT22;9195;53.176;9.486;2022-12-18T03:00:23;-7.00;99.90
18139;DHT22;9195;53.176;9.486;2022-12-18T03:06:04;-7.10;99.90
18139;DHT22;9195;53.176;9.486;2022-12-18T03:08:38;-7.20;99.90
18139;DHT22;9195;53.176;9.486;2022-12-18T03:11:10;-7.20;99.90
18139;DHT22;9195;53.176;9.486;2022-12-18T03:13:46;-7.20;99.90
18139;DHT22;9195;53.176;9.486;2022-12-18T03:16:20;-7.30;99.90
18139;DHT22;9195;53.176;9.486;2022-12-18T03:18:52;-7.30;99.90
18139;DHT22;9195;53.176;9.486;2022-12-18T03:21:22;-7.30;99.90
18139;DHT22;9195;53.176;9.486;2022-12-18T03:23:49;-7.40;99.90
18139;DHT22;9195;53.176;9.486;2022-12-18T03:26:19;-7.30;99.90
18139;DHT22;9195;53.176;9.486;2022-12-18T03:28:53;-7.30;99.90
18139;DHT22;9195;53.176;9.486;2022-12-18T03:31:22;-7.20;99.90
18139;DHT22;9195;53.176;9.486;2022-12-18T03:33:58;-7.20;99.90
18139;DHT22;9195;53.176;9.486;2022-12-18T03:36:24;-7.30;99.90
18139;DHT22;9195;53.176;9.486;2022-12-18T03:38:50;-7.30;99.90
18139;DHT22;9195;53.176;9.486;2022-12-18T03:46:52;-7.30;99.90
18139;DHT22;9195;53.176;9.486;2022-12-18T03:49:37;-7.30;99.90
18139;DHT22;9195;53.176;9.486;2022-12-18T03:52:25;-7.30;99.90
18139;DHT22;9195;53.176;9.486;2022-12-18T03:54:52;-7.30;99.90
18139;DHT22;9195;53.176;9.486;2022-12-18T03:57:25;-7.30;99.90
18139;DHT22;9195;53.176;9.486;2022-12-18T04:00:00;-7.30;99.90
18139;DHT22;9195;53.176;9.486;2022-12-18T04:02:26;-7.30;99.90
18139;DHT22;9195;53.176;9.486;2022-12-18T04:04:57;-7.30;99.90
18139;DHT22;9195;53.176;9.486;2022-12-18T04:07:25;-7.40;99.90
18139;DHT22;9195;53.176;9.486;2022-12-18T04:09:53;-7.40;99.90
18139;DHT22;9195;53.176;9.486;2022-12-18T04:12:20;-7.40;99.90
18139;DHT22;9195;53.176;9.486;2022-12-18T04:14:45;-7.40;99.90
18139;DHT22;9195;53.176;9.486;2022-12-18T04:17:11;-7.30;99.90
18139;DHT22;9195;53.176;9.486;2022-12-18T04:19:36;-7.40;99.90
18139;DHT22;9195;53.176;9.486;2022-12-18T04:22:02;-7.40;99.90
18139;DHT22;9195;53.176;9.486;2022-12-18T04:24:28;-7.30;99.90
18139;DHT22;9195;53.176;9.486;2022-12-18T04:26:54;-7.30;99.90
18139;DHT22;9195;53.176;9.486;2022-12-18T04:29:19;-7.40;99.90
18139;DHT22;9195;53.176;9.486;2022-12-18T04:31:45;-7.40;99.90
18139;DHT22;9195;53.176;9.486;2022-12-18T04:34:11;-7.40;99.90
18139;DHT22;9195;53.176;9.486;2022-12-18T04:36:36;-7.40;99.90
18139;DHT22;9195;53.176;9.486;2022-12-18T04:39:02;-7.40;99.90
18139;DHT22;9195;53.176;9.486;2022-12-18T04:41:28;-7.30;99.90
18139;DHT22;9195;53.176;9.486;2022-12-18T04:43:53;-7.40;99.90
18139;DHT22;9195;53.176;9.486;2022-12-18T04:46:19;-7.40;99.90
18139;DHT22;9195;53.176;9.486;2022-12-18T04:48:46;-7.40;99.90
18139;DHT22;9195;53.176;9.486;2022-12-18T04:51:12;-7.40;99.90
18139;DHT22;9195;53.176;9.486;2022-12-18T04:53:38;-7.40;99.90
18139;DHT22;9195;53.176;9.486;2022-12-18T04:56:11;-7.40;99.90
18139;DHT22;9195;53.176;9.486;2022-12-18T04:58:38;-7.30;99.90
18139;DHT22;9195;53.176;9.486;2022-12-18T05:01:04;-7.30;99.90
18139;DHT22;9195;53.176;9.486;2022-12-18T05:03:30;-7.30;99.90
18139;DHT22;9195;53.176;9.486;2022-12-18T05:05:56;-7.20;99.90
18139;DHT22;9195;53.176;9.486;2022-12-18T05:08:22;-7.20;99.90
18139;DHT22;9195;53.176;9.486;2022-12-18T05:10:48;-7.20;99.90
18139;DHT22;9195;53.176;9.486;2022-12-18T05:13:13;-7.20;99.90
18139;DHT22;9195;53.176;9.486;2022-12-18T05:15:39;-7.10;99.90
18139;DHT22;9195;53.176;9.486;2022-12-18T05:18:05;-7.10;99.90
18139;DHT22;9195;53.176;9.486;2022-12-18T05:20:31;-7.20;99.90
18139;DHT22;9195;53.176;9.486;2022-12-18T05:22:57;-7.20;99.90
18139;DHT22;9195;53.176;9.486;2022-12-18T05:25:23;-7.20;99.90
18139;DHT22;9195;53.176;9.486;2022-12-18T05:27:49;-7.20;99.90
18139;DHT22;9195;53.176;9.486;2022-12-18T05:30:15;-7.20;99.90
18139;DHT22;9195;53.176;9.486;2022-12-18T05:32:40;-7.30;99.90
18139;DHT22;9195;53.176;9.486;2022-12-18T05:35:09;-7.30;99.90
18139;DHT22;9195;53.176;9.486;2022-12-18T05:37:35;-7.20;99.90
18139;DHT22;9195;53.176;9.486;2022-12-18T05:40:02;-7.30;99.90
18139;DHT22;9195;53.176;9.486;2022-12-18T05:42:28;-7.20;99.90
18139;DHT22;9195;53.176;9.486;2022-12-18T05:44:53;-7.30;99.90
18139;DHT22;9195;53.176;9.486;2022-12-18T05:47:19;-7.30;99.90
18139;DHT22;9195;53.176;9.486;2022-12-18T05:49:45;-7.30;99.90
18139;DHT22;9195;53.176;9.486;2022-12-18T05:52:10;-7.20;99.90
18139;DHT22;9195;53.176;9.486;2022-12-18T05:54:36;-7.30;99.90
18139;DHT22;9195;53.176;9.486;2022-12-18T05:57:01;-7.30;99.90
18139;DHT22;9195;53.176;9.486;2022-12-18T05:59:27;-7.30;99.90
18139;DHT22;9195;53.176;9.486;2022-12-18T06:01:52;-7.30;99.90
18139;DHT22;9195;53.176;9.486;2022-12-18T06:04:18;-7.30;99.90
18139;DHT22;9195;53.176;9.486;2022-12-18T06:06:44;-7.30;99.90
18139;DHT22;9195;53.176;9.486;2022-12-18T06:09:09;-7.20;99.90
18139;DHT22;9195;53.176;9.486;2022-12-18T06:11:38;-7.30;99.90
18139;DHT22;9195;53.176;9.486;2022-12-18T06:14:05;-7.20;99.90
18139;DHT22;9195;53.176;9.486;2022-12-18T06:16:31;-7.20;99.90
18139;DHT22;9195;53.176;9.486;2022-12-18T06:19:01;-7.20;99.90
18139;DHT22;9195;53.176;9.486;2022-12-18T06:21:28;-7.20;99.90
18139;DHT22;9195;53.176;9.486;2022-12-18T06:23:54;-7.20;99.90
18139;DHT22;9195;53.176;9.486;2022-12-18T06:26:20;-7.20;99.90
18139;DHT22;9195;53.176;9.486;2022-12-18T06:28:46;-7.20;99.90
18139;DHT22;9195;53.176;9.486;2022-12-18T06:31:11;-7.20;99.90
18139;DHT22;9195;53.176;9.486;2022-12-18T06:33:38;-7.30;99.90
18139;DHT22;9195;53.176;9.486;2022-12-18T06:38:32;-7.40;99.90
18139;DHT22;9195;53.176;9.486;2022-12-18T06:40:58;-7.40;99.90
18139;DHT22;9195;53.176;9.486;2022-12-18T06:43:23;-7.40;99.90
18139;DHT22;9195;53.176;9.486;2022-12-18T06:45:49;-7.40;99.90
18139;DHT22;9195;53.176;9.486;2022-12-18T06:48:19;-7.40;99.90
18139;DHT22;9195;53.176;9.486;2022-12-18T06:50:45;-7.40;99.90
18139;DHT22;9195;53.176;9.486;2022-12-18T06:53:10;-7.30;99.90
18139;DHT22;9195;53.176;9.486;2022-12-18T06:55:36;-7.30;99.90
18139;DHT22;9195;53.176;9.486;2022-12-18T06:58:02;-7.30;99.90
18139;DHT22;9195;53.176;9.486;2022-12-18T07:00:27;-7.30;99.90
18139;DHT22;9195;53.176;9.486;2022-12-18T07:02:53;-7.30;99.90
18139;DHT22;9195;53.176;9.486;2022-12-18T07:05:18;-7.30;99.90
18139;DHT22;9195;53.176;9.486;2022-12-18T07:07:44;-7.30;99.90
18139;DHT22;9195;53.176;9.486;2022-12-18T07:10:10;-7.20;99.90
18139;DHT22;9195;53.176;9.486;2022-12-18T07:12:35;-7.20;99.90
18139;DHT22;9195;53.176;9.486;2022-12-18T07:15:01;-7.20;99.90
18139;DHT22;9195;53.176;9.486;2022-12-18T07:17:27;-7.20;99.90
18139;DHT22;9195;53.176;9.486;2022-12-18T07:19:52;-7.20;99.90
18139;DHT22;9195;53.176;9.486;2022-12-18T07:22:18;-7.10;99.90
18139;DHT22;9195;53.176;9.486;2022-12-18T07:24:44;-7.10;99.90
18139;DHT22;9195;53.176;9.486;2022-12-18T07:27:09;-7.10;99.90
18139;DHT22;9195;53.176;9.486;2022-12-18T07:29:35;-7.10;99.90
18139;DHT22;9195;53.176;9.486;2022-12-18T07:32:00;-7.10;99.90
18139;DHT22;9195;53.176;9.486;2022-12-18T07:34:26;-7.00;99.90
18139;DHT22;9195;53.176;9.486;2022-12-18T07:36:52;-7.00;99.90
18139;DHT22;9195;53.176;9.486;2022-12-18T07:39:17;-7.00;99.90
18139;DHT22;9195;53.176;9.486;2022-12-18T07:41:43;-6.90;99.90
18139;DHT22;9195;53.176;9.486;2022-12-18T07:44:12;-6.90;99.90
18139;DHT22;9195;53.176;9.486;2022-12-18T07:46:38;-6.80;99.90
18139;DHT22;9195;53.176;9.486;2022-12-18T07:49:04;-6.70;99.90
18139;DHT22;9195;53.176;9.486;2022-12-18T07:51:29;-6.70;99.90
18139;DHT22;9195;53.176;9.486;2022-12-18T07:53:56;-6.60;99.90
18139;DHT22;9195;53.176;9.486;2022-12-18T07:56:22;-6.60;99.90
18139;DHT22;9195;53.176;9.486;2022-12-18T07:58:48;-6.50;99.90
18139;DHT22;9195;53.176;9.486;2022-12-18T08:01:13;-6.50;99.90
18139;DHT22;9195;53.176;9.486;2022-12-18T08:03:40;-6.40;99.90
18139;DHT22;9195;53.176;9.486;2022-12-18T08:06:08;-6.30;99.90
18139;DHT22;9195;53.176;9.486;2022-12-18T08:08:35;-6.20;99.90
18139;DHT22;9195;53.176;9.486;2022-12-18T08:11:01;-6.00;99.90
18139;DHT22;9195;53.176;9.486;2022-12-18T08:13:27;-6.00;99.90
18139;DHT22;9195;53.176;9.486;2022-12-18T08:16:00;-5.90;99.90
18139;DHT22;9195;53.176;9.486;2022-12-18T08:18:26;-5.80;99.90
18139;DHT22;9195;53.176;9.486;2022-12-18T08:20:52;-5.70;99.90
18139;DHT22;9195;53.176;9.486;2022-12-18T08:23:18;-5.60;99.90
18139;DHT22;9195;53.176;9.486;2022-12-18T08:25:43;-5.50;99.90
18139;DHT22;9195;53.176;9.486;2022-12-18T08:28:09;-5.30;99.90
18139;DHT22;9195;53.176;9.486;2022-12-18T08:30:35;-5.10;99.90
18139;DHT22;9195;53.176;9.486;2022-12-18T08:33:01;-4.90;99.90
18139;DHT22;9195;53.176;9.486;2022-12-18T08:35:26;-4.60;99.90
18139;DHT22;9195;53.176;9.486;2022-12-18T08:37:52;-4.40;99.90
18139;DHT22;9195;53.176;9.486;2022-12-18T08:40:18;-4.00;99.90
18139;DHT22;9195;53.176;9.486;2022-12-18T08:42:43;-3.60;99.90
18139;DHT22;9195;53.176;9.486;2022-12-18T08:45:27;-3.20;99.90
18139;DHT22;9195;53.176;9.486;2022-12-18T08:47:53;-2.80;99.90
18139;DHT22;9195;53.176;9.486;2022-12-18T08:50:19;-2.40;99.90
18139;DHT22;9195;53.176;9.486;2022-12-18T08:52:45;-2.10;99.90
18139;DHT22;9195;53.176;9.486;2022-12-18T08:55:11;-1.90;99.90
18139;DHT22;9195;53.176;9.486;2022-12-18T08:57:36;-1.80;99.90
18139;DHT22;9195;53.176;9.486;2022-12-18T09:00:03;-1.60;99.90
18139;DHT22;9195;53.176;9.486;2022-12-18T09:02:29;-1.40;99.90
18139;DHT22;9195;53.176;9.486;2022-12-18T09:04:54;-1.20;99.90
18139;DHT22;9195;53.176;9.486;2022-12-18T09:07:20;-0.90;99.90
18139;DHT22;9195;53.176;9.486;2022-12-18T09:09:45;-0.70;99.90
18139;DHT22;9195;53.176;9.486;2022-12-18T09:12:11;-0.70;99.90
18139;DHT22;9195;53.176;9.486;2022-12-18T09:14:36;-0.90;99.90
18139;DHT22;9195;53.176;9.486;2022-12-18T09:17:02;-1.00;99.90
18139;DHT22;9195;53.176;9.486;2022-12-18T09:19:28;-1.20;99.90
18139;DHT22;9195;53.176;9.486;2022-12-18T09:21:53;-1.20;99.90
18139;DHT22;9195;53.176;9.486;2022-12-18T09:24:19;-1.10;99.90
18139;DHT22;9195;53.176;9.486;2022-12-18T09:26:44;-1.00;99.90
18139;DHT22;9195;53.176;9.486;2022-12-18T09:29:10;-0.70;99.90
18139;DHT22;9195;53.176;9.486;2022-12-18T09:31:38;-0.50;99.90
18139;DHT22;9195;53.176;9.486;2022-12-18T09:34:04;-0.30;99.90
18139;DHT22;9195;53.176;9.486;2022-12-18T09:36:29;-0.10;99.90
18139;DHT22;9195;53.176;9.486;2022-12-18T09:38:55;0.20;99.90
18139;DHT22;9195;53.176;9.486;2022-12-18T09:41:53;0.50;99.90
18139;DHT22;9195;53.176;9.486;2022-12-18T09:46:58;0.80;99.90
18139;DHT22;9195;53.176;9.486;2022-12-18T09:49:29;0.70;99.90
18139;DHT22;9195;53.176;9.486;2022-12-18T09:52:13;0.60;99.90
18139;DHT22;9195;53.176;9.486;2022-12-18T09:54:41;0.60;99.90
18139;DHT22;9195;53.176;9.486;2022-12-18T09:57:14;0.60;99.90
18139;DHT22;9195;53.176;9.486;2022-12-18T09:59:41;0.40;99.90
18139;DHT22;9195;53.176;9.486;2022-12-18T10:02:15;0.40;99.90
18139;DHT22;9195;53.176;9.486;2022-12-18T10:04:42;0.50;99.90
18139;DHT22;9195;53.176;9.486;2022-12-18T10:07:21;0.60;99.90
18139;DHT22;9195;53.176;9.486;2022-12-18T10:10:00;0.90;99.90
18139;DHT22;9195;53.176;9.486;2022-12-18T10:13:03;1.00;99.90
18139;DHT22;9195;53.176;9.486;2022-12-18T10:18:36;1.10;99.90
18139;DHT22;9195;53.176;9.486;2022-12-18T10:21:26;1.40;99.90
18139;DHT22;9195;53.176;9.486;2022-12-18T10:24:08;1.70;99.90
18139;DHT22;9195;53.176;9.486;2022-12-18T10:26:39;1.60;99.90
18139;DHT22;9195;53.176;9.486;2022-12-18T10:29:13;1.40;99.90
18139;DHT22;9195;53.176;9.486;2022-12-18T10:31:39;1.60;99.90
18139;DHT22;9195;53.176;9.486;2022-12-18T10:34:10;1.70;99.90
18139;DHT22;9195;53.176;9.486;2022-12-18T10:36:36;1.80;99.90
18139;DHT22;9195;53.176;9.486;2022-12-18T10:39:20;1.80;99.90
18139;DHT22;9195;53.176;9.486;2022-12-18T10:41:47;1.90;99.90
18139;DHT22;9195;53.176;9.486;2022-12-18T10:44:22;1.90;99.90
18139;DHT22;9195;53.176;9.486;2022-12-18T10:47:02;1.90;99.90
18139;DHT22;9195;53.176;9.486;2022-12-18T10:49:31;1.90;99.90
18139;DHT22;9195;53.176;9.486;2022-12-18T10:52:05;1.90;99.90
18139;DHT22;9195;53.176;9.486;2022-12-18T10:54:34;1.90;99.90
18139;DHT22;9195;53.176;9.486;2022-12-18T10:57:40;1.90;99.90
18139;DHT22;9195;53.176;9.486;2022-12-18T11:00:27;2.00;99.90
18139;DHT22;9195;53.176;9.486;2022-12-18T11:02:54;2.40;99.90
18139;DHT22;9195;53.176;9.486;2022-12-18T11:05:30;2.50;99.90
18139;DHT22;9195;53.176;9.486;2022-12-18T11:07:57;2.60;99.90
18139;DHT22;9195;53.176;9.486;2022-12-18T11:10:34;3.00;99.90
18139;DHT22;9195;53.176;9.486;2022-12-18T11:13:18;3.60;99.90
18139;DHT22;9195;53.176;9.486;2022-12-18T11:15:45;4.30;99.90
18139;DHT22;9195;53.176;9.486;2022-12-18T11:18:19;4.80;99.90
18139;DHT22;9195;53.176;9.486;2022-12-18T11:20:55;5.10;99.90
18139;DHT22;9195;53.176;9.486;2022-12-18T11:23:22;4.90;99.90
18139;DHT22;9195;53.176;9.486;2022-12-18T11:25:56;4.70;99.90
18139;DHT22;9195;53.176;9.486;2022-12-18T11:28:41;4.30;99.90
18139;DHT22;9195;53.176;9.486;2022-12-18T11:36:45;5.60;99.00
18139;DHT22;9195;53.176;9.486;2022-12-18T11:39:20;6.00;97.90
18139;DHT22;9195;53.176;9.486;2022-12-18T11:41:54;6.30;97.40
18139;DHT22;9195;53.176;9.486;2022-12-18T11:49:44;6.60;95.50
18139;DHT22;9195;53.176;9.486;2022-12-18T11:52:22;6.60;94.90
18139;DHT22;9195;53.176;9.486;2022-12-18T11:54:55;6.10;94.90
18139;DHT22;9195;53.176;9.486;2022-12-18T11:57:40;5.80;95.20
18139;DHT22;9195;53.176;9.486;2022-12-18T12:00:18;5.50;95.10
18139;DHT22;9195;53.176;9.486;2022-12-18T12:11:01;8.40;93.00
18139;DHT22;9195;53.176;9.486;2022-12-18T12:16:41;8.70;90.60
18139;DHT22;9195;53.176;9.486;2022-12-18T12:22:16;7.20;92.40
18139;DHT22;9195;53.176;9.486;2022-12-18T12:30:09;6.20;92.60
18139;DHT22;9195;53.176;9.486;2022-12-18T12:32:47;6.00;92.90
18139;DHT22;9195;53.176;9.486;2022-12-18T12:36:04;5.90;92.80
18139;DHT22;9195;53.176;9.486;2022-12-18T12:38:16;5.30;93.20
18139;DHT22;9195;53.176;9.486;2022-12-18T12:40:53;4.80;94.00
18139;DHT22;9195;53.176;9.486;2022-12-18T12:46:14;3.90;94.50
18139;DHT22;9195;53.176;9.486;2022-12-18T12:48:47;3.70;95.40
18139;DHT22;9195;53.176;9.486;2022-12-18T12:51:29;3.30;95.20
18139;DHT22;9195;53.176;9.486;2022-12-18T12:53:57;3.30;95.80
18139;DHT22;9195;53.176;9.486;2022-12-18T12:56:29;3.10;96.10
18139;DHT22;9195;53.176;9.486;2022-12-18T12:59:13;3.00;96.30
18139;DHT22;9195;53.176;9.486;2022-12-18T13:04:48;2.80;96.10
18139;DHT22;9195;53.176;9.486;2022-12-18T13:15:30;2.20;97.10
18139;DHT22;9195;53.176;9.486;2022-12-18T13:25:52;1.80;97.40
18139;DHT22;9195;53.176;9.486;2022-12-18T13:31:00;1.60;97.50
18139;DHT22;9195;53.176;9.486;2022-12-18T13:36:01;1.50;97.90
18139;DHT22;9195;53.176;9.486;2022-12-18T13:41:01;1.30;98.90
18139;DHT22;9195;53.176;9.486;2022-12-18T13:43:36;1.30;99.50
18139;DHT22;9195;53.176;9.486;2022-12-18T13:48:56;1.10;99.90
18139;DHT22;9195;53.176;9.486;2022-12-18T13:51:24;1.00;99.90
18139;DHT22;9195;53.176;9.486;2022-12-18T13:54:21;0.90;99.90
18139;DHT22;9195;53.176;9.486;2022-12-18T13:56:48;0.80;99.90
18139;DHT22;9195;53.176;9.486;2022-12-18T13:59:40;0.70;99.90
18139;DHT22;9195;53.176;9.486;2022-12-18T14:02:16;0.60;99.90
18139;DHT22;9195;53.176;9.486;2022-12-18T14:04:45;0.50;99.90
18139;DHT22;9195;53.176;9.486;2022-12-18T14:09:43;0.40;99.90
18139;DHT22;9195;53.176;9.486;2022-12-18T14:12:17;0.30;99.90
18139;DHT22;9195;53.176;9.486;2022-12-18T14:15:03;0.20;99.90
18139;DHT22;9195;53.176;9.486;2022-12-18T14:17:31;0.10;99.90
18139;DHT22;9195;53.176;9.486;2022-12-18T14:19:57;-0.10;99.90
18139;DHT22;9195;53.176;9.486;2022-12-18T14:22:26;-0.10;99.90
18139;DHT22;9195;53.176;9.486;2022-12-18T14:27:42;-0.30;99.90
18139;DHT22;9195;53.176;9.486;2022-12-18T14:33:11;-0.50;99.90
18139;DHT22;9195;53.176;9.486;2022-12-18T14:35:39;-0.50;99.90
18139;DHT22;9195;53.176;9.486;2022-12-18T14:38:30;-0.60;99.90
18139;DHT22;9195;53.176;9.486;2022-12-18T14:40:57;-0.70;99.90
18139;DHT22;9195;53.176;9.486;2022-12-18T14:43:23;-0.80;99.90
18139;DHT22;9195;53.176;9.486;2022-12-18T14:45:49;-0.90;99.90
18139;DHT22;9195;53.176;9.486;2022-12-18T14:48:21;-1.00;99.90
18139;DHT22;9195;53.176;9.486;2022-12-18T14:50:59;-1.00;99.90
18139;DHT22;9195;53.176;9.486;2022-12-18T14:53:34;-1.10;99.90
18139;DHT22;9195;53.176;9.486;2022-12-18T14:56:02;-1.20;99.90
18139;DHT22;9195;53.176;9.486;2022-12-18T14:58:28;-1.30;99.90
18139;DHT22;9195;53.176;9.486;2022-12-18T15:00:54;-1.30;99.90
18139;DHT22;9195;53.176;9.486;2022-12-18T15:03:21;-1.40;99.90
18139;DHT22;9195;53.176;9.486;2022-12-18T15:05:47;-1.50;99.90
18139;DHT22;9195;53.176;9.486;2022-12-18T15:08:39;-1.60;99.90
18139;DHT22;9195;53.176;9.486;2022-12-18T15:11:26;-1.60;99.90
18139;DHT22;9195;53.176;9.486;2022-12-18T15:13:52;-1.70;99.90
18139;DHT22;9195;53.176;9.486;2022-12-18T15:16:17;-1.80;99.90
18139;DHT22;9195;53.176;9.486;2022-12-18T15:18:43;-1.80;99.90
18139;DHT22;9195;53.176;9.486;2022-12-18T15:21:11;-1.90;99.90
18139;DHT22;9195;53.176;9.486;2022-12-18T15:26:15;-2.00;99.90
18139;DHT22;9195;53.176;9.486;2022-12-18T15:28:51;-2.10;99.90
18139;DHT22;9195;53.176;9.486;2022-12-18T15:36:23;-2.10;99.90
18139;DHT22;9195;53.176;9.486;2022-12-18T15:38:53;-2.10;99.90
18139;DHT22;9195;53.176;9.486;2022-12-18T15:41:21;-2.10;99.90
18139;DHT22;9195;53.176;9.486;2022-12-18T15:43:49;-2.10;99.90
18139;DHT22;9195;53.176;9.486;2022-12-18T15:46:20;-2.10;99.90
18139;DHT22;9195;53.176;9.486;2022-12-18T15:48:56;-2.10;99.90
18139;DHT22;9195;53.176;9.486;2022-12-18T15:51:34;-2.10;99.90
18139;DHT22;9195;53.176;9.486;2022-12-18T15:54:03;-2.10;99.90
18139;DHT22;9195;53.176;9.486;2022-12-18T15:56:29;-2.10;99.90
18139;DHT22;9195;53.176;9.486;2022-12-18T15:59:15;-2.10;99.90
18139;DHT22;9195;53.176;9.486;2022-12-18T16:01:44;-2.10;99.90
18139;DHT22;9195;53.176;9.486;2022-12-18T16:04:12;-2.10;99.90
18139;DHT22;9195;53.176;9.486;2022-12-18T16:06:38;-2.10;99.90
18139;DHT22;9195;53.176;9.486;2022-12-18T16:09:05;-2.00;99.90
18139;DHT22;9195;53.176;9.486;2022-12-18T16:11:33;-2.10;99.90
18139;DHT22;9195;53.176;9.486;2022-12-18T16:14:27;-2.10;99.90
18139;DHT22;9195;53.176;9.486;2022-12-18T16:16:56;-2.00;99.90
18139;DHT22;9195;53.176;9.486;2022-12-18T16:19:22;-2.00;99.90
18139;DHT22;9195;53.176;9.486;2022-12-18T16:21:49;-2.00;99.90
18139;DHT22;9195;53.176;9.486;2022-12-18T16:24:17;-2.00;99.90
18139;DHT22;9195;53.176;9.486;2022-12-18T16:26:43;-2.00;99.90
18139;DHT22;9195;53.176;9.486;2022-12-18T16:29:09;-2.00;99.90
18139;DHT22;9195;53.176;9.486;2022-12-18T16:31:36;-2.00;99.90
18139;DHT22;9195;53.176;9.486;2022-12-18T16:36:51;-1.90;99.90
18139;DHT22;9195;53.176;9.486;2022-12-18T16:39:19;-2.00;99.90
18139;DHT22;9195;53.176;9.486;2022-12-18T16:41:45;-2.00;99.90
18139;DHT22;9195;53.176;9.486;2022-12-18T16:44:12;-1.90;99.90
18139;DHT22;9195;53.176;9.486;2022-12-18T16:46:38;-1.90;99.90
18139;DHT22;9195;53.176;9.486;2022-12-18T16:49:04;-1.90;99.90
18139;DHT22;9195;53.176;9.486;2022-12-18T16:51:31;-1.90;99.90
18139;DHT22;9195;53.176;9.486;2022-12-18T16:53:56;-1.90;99.90
18139;DHT22;9195;53.176;9.486;2022-12-18T16:56:22;-1.90;99.90
18139;DHT22;9195;53.176;9.486;2022-12-18T16:58:56;-1.90;99.90
18139;DHT22;9195;53.176;9.486;2022-12-18T17:01:23;-1.90;99.90
18139;DHT22;9195;53.176;9.486;2022-12-18T17:04:03;-1.90;99.90
18139;DHT22;9195;53.176;9.486;2022-12-18T17:06:32;-1.90;99.90
18139;DHT22;9195;53.176;9.486;2022-12-18T17:08:59;-1.80;99.90
18139;DHT22;9195;53.176;9.486;2022-12-18T17:11:26;-1.80;99.90
18139;DHT22;9195;53.176;9.486;2022-12-18T17:13:52;-1.80;99.90
18139;DHT22;9195;53.176;9.486;2022-12-18T17:16:18;-1.80;99.90
18139;DHT22;9195;53.176;9.486;2022-12-18T17:18:44;-1.80;99.90
18139;DHT22;9195;53.176;9.486;2022-12-18T17:21:10;-1.80;99.90
18139;DHT22;9195;53.176;9.486;2022-12-18T17:23:37;-1.80;99.90
18139;DHT22;9195;53.176;9.486;2022-12-18T17:26:03;-1.80;99.90
18139;DHT22;9195;53.176;9.486;2022-12-18T17:28:31;-1.80;99.90
18139;DHT22;9195;53.176;9.486;2022-12-18T17:30:57;-1.80;99.90
18139;DHT22;9195;53.176;9.486;2022-12-18T17:33:24;-1.70;99.90
18139;DHT22;9195;53.176;9.486;2022-12-18T17:35:49;-1.70;99.90
18139;DHT22;9195;53.176;9.486;2022-12-18T17:38:15;-1.70;99.90
18139;DHT22;9195;53.176;9.486;2022-12-18T17:40:41;-1.60;99.90
18139;DHT22;9195;53.176;9.486;2022-12-18T17:43:08;-1.60;99.90
18139;DHT22;9195;53.176;9.486;2022-12-18T17:45:37;-1.60;99.90
18139;DHT22;9195;53.176;9.486;2022-12-18T17:48:04;-1.60;99.90
18139;DHT22;9195;53.176;9.486;2022-12-18T17:50:32;-1.60;99.90
18139;DHT22;9195;53.176;9.486;2022-12-18T17:52:58;-1.60;99.90
18139;DHT22;9195;53.176;9.486;2022-12-18T17:55:24;-1.60;99.90
18139;DHT22;9195;53.176;9.486;2022-12-18T17:57:49;-1.50;99.90
18139;DHT22;9195;53.176;9.486;2022-12-18T18:00:16;-1.50;99.90
18139;DHT22;9195;53.176;9.486;2022-12-18T18:02:41;-1.50;99.90
18139;DHT22;9195;53.176;9.486;2022-12-18T18:05:07;-1.50;99.90